Terminal Aerodrome Forecast
Issued by NWS Upton, NY

Home | Current Version | Previous Version | Text Only | Print | Product List | Glossary On
Versions: 1 2 3 4 5 6 7 8 9 10 11 12 13 14 15 16 17 18 19 20 21 22 23 24 25 26 27 28 29 30 31
000
FTUS41 KOKX 040240 AAA
TAFISP
TAF AMD
KISP 040240Z 0403/0424 VRB04KT 6SM BR FEW050 BKN250
      TEMPO 0403/0406 3SM BR
     FM040600 VRB03KT 3SM BR SCT050 BKN200
     FM041100 05011KT P6SM BKN025
     FM041500 06013G19KT P6SM BKN030
     FM042000 08014G20KT P6SM BKN035=

USA.gov is the U.S. government's official web portal to all federal, state and local government web resources and services.